Time;durP1;ratioP1;P1;durP2;ratioP2;P2;SDS_P1;SDS_P2;PMS_P1;PMS_P2;Temp;Humidity;BMP_temperature;BMP_pressure;BME280_temperature;BME280_humidity;BME280_pressure;Samples;Min_cycle;Max_cycle;Signal;HPM_P1;HPM_P2
2022/08/26 00:01:23;;;;;;;16.75;8.38;;;22.70;99.10;;;;;;4909897;29;20032;-69
2022/08/26 00:03:49;;;;;;;16.42;7.55;;;22.70;99.30;;;;;;4913148;29;20035;-68
2022/08/26 00:06:14;;;;;;;18.92;8.30;;;22.70;99.20;;;;;;4914487;29;20036;-69
2022/08/26 00:08:40;;;;;;;19.52;9.13;;;22.70;99.40;;;;;;4913290;29;20119;-68
2022/08/26 00:11:06;;;;;;;18.23;8.00;;;22.60;99.70;;;;;;4913314;29;20377;-68
2022/08/26 00:13:33;;;;;;;21.83;8.13;;;22.60;99.90;;;;;;4912228;29;20035;-68
2022/08/26 00:15:59;;;;;;;20.48;8.25;;;22.50;99.90;;;;;;4910761;29;20482;-68
2022/08/26 00:18:25;;;;;;;19.92;8.35;;;22.50;99.90;;;;;;4911271;29;20035;-68
2022/08/26 00:20:50;;;;;;;15.88;9.23;;;22.50;99.90;;;;;;4911933;29;20056;-68
2022/08/26 00:23:16;;;;;;;17.92;8.73;;;22.50;99.90;;;;;;4911471;29;20039;-68
2022/08/26 00:25:42;;;;;;;19.10;9.57;;;22.50;99.90;;;;;;4911040;29;20036;-68
2022/08/26 00:28:08;;;;;;;21.20;9.10;;;22.50;99.90;;;;;;4912726;29;20020;-68
2022/08/26 00:30:34;;;;;;;18.30;7.85;;;22.50;99.90;;;;;;4911149;29;20407;-68
2022/08/26 00:33:00;;;;;;;24.30;7.95;;;22.60;99.80;;;;;;4911426;29;20032;-68
2022/08/26 00:35:27;;;;;;;25.52;10.00;;;22.60;99.70;;;;;;4910105;29;20032;-68
2022/08/26 00:37:54;;;;;;;18.95;8.68;;;22.60;99.70;;;;;;4911377;29;20322;-68
2022/08/26 00:40:24;;;;;;;17.15;8.05;;;22.60;99.80;;;;;;4911758;29;20123;-68
2022/08/26 00:42:49;;;;;;;18.33;9.45;;;22.70;99.50;;;;;;4910153;29;20454;-68
2022/08/26 00:45:15;;;;;;;19.77;8.98;;;22.60;99.50;;;;;;4912327;29;20122;-68
2022/08/26 00:47:48;;;;;;;16.90;8.30;;;22.60;99.70;;;;;;4912033;29;20028;-68
2022/08/26 00:50:19;;;;;;;19.00;8.88;;;22.60;99.80;;;;;;4912602;29;20040;-68
2022/08/26 00:52:45;;;;;;;24.75;9.77;;;22.60;99.60;;;;;;4911415;29;20055;-68
2022/08/26 00:55:39;;;;;;;19.40;8.18;;;22.50;99.80;;;;;;4912987;29;20040;-68
2022/08/26 00:58:06;;;;;;;13.52;8.57;;;22.40;99.90;;;;;;4910618;29;20024;-68
2022/08/26 01:00:32;;;;;;;23.80;7.85;;;22.30;99.90;;;;;;4911857;29;20047;-68
2022/08/26 01:03:00;;;;;;;13.10;8.25;;;22.20;99.90;;;;;;4910619;29;20119;-68
2022/08/26 01:05:26;;;;;;;21.65;7.85;;;22.20;99.90;;;;;;4912437;29;20132;-68
2022/08/26 01:07:52;;;;;;;14.18;9.00;;;22.20;99.90;;;;;;4911243;29;20517;-68
2022/08/26 01:10:21;;;;;;;20.10;10.52;;;22.10;99.90;;;;;;4910776;29;20055;-68
2022/08/26 01:12:57;;;;;;;20.65;9.18;;;22.10;99.90;;;;;;4912377;29;20040;-68
2022/08/26 01:15:29;;;;;;;18.85;7.70;;;22.00;99.90;;;;;;4911907;29;20528;-68
2022/08/26 01:17:57;;;;;;;18.45;8.93;;;21.90;99.90;;;;;;4913380;29;20033;-68
2022/08/26 01:20:51;;;;;;;15.82;7.70;;;21.80;99.90;;;;;;4912763;29;20163;-68
2022/08/26 01:23:17;;;;;;;18.63;9.13;;;21.80;99.90;;;;;;4912968;29;20464;-68
2022/08/26 01:25:49;;;;;;;22.60;9.93;;;21.80;99.90;;;;;;4912129;29;20060;-68
2022/08/26 01:28:22;;;;;;;25.88;9.35;;;21.80;99.90;;;;;;4912234;29;20489;-68
2022/08/26 01:30:51;;;;;;;17.85;9.52;;;21.70;99.90;;;;;;4910649;29;20028;-68
2022/08/26 01:33:42;;;;;;;19.65;9.38;;;21.80;99.90;;;;;;4928238;23;20474;-85
2022/08/26 01:36:09;;;;;;;26.63;10.95;;;21.80;99.90;;;;;;4929990;29;20027;-83
2022/08/26 01:38:35;;;;;;;23.58;16.13;;;21.80;99.90;;;;;;4931011;29;20381;-83
2022/08/26 01:41:01;;;;;;;23.15;12.10;;;21.80;99.90;;;;;;4930912;29;20055;-83
2022/08/26 01:43:29;;;;;;;19.45;8.85;;;21.90;99.90;;;;;;4930576;29;20126;-84
2022/08/26 01:45:55;;;;;;;21.48;11.43;;;21.90;99.90;;;;;;4930194;29;20684;-85
2022/08/26 01:48:26;;;;;;;20.73;12.15;;;22.00;99.90;;;;;;4931357;29;20035;-84
2022/08/26 01:50:52;;;;;;;22.52;8.73;;;22.10;99.90;;;;;;4930231;29;20107;-84
2022/08/26 01:53:19;;;;;;;17.70;9.07;;;22.10;99.90;;;;;;4930880;29;20083;-84
2022/08/26 01:55:49;;;;;;;22.38;10.63;;;21.90;99.90;;;;;;4930362;29;20088;-84
2022/08/26 01:58:25;;;;;;;15.93;9.95;;;21.80;99.90;;;;;;4932224;29;20027;-84
2022/08/26 02:00:51;;;;;;;16.63;10.00;;;21.60;99.90;;;;;;4928370;29;20038;-84
2022/08/26 02:03:20;;;;;;;17.65;11.55;;;21.60;99.90;;;;;;4931540;29;20039;-84
2022/08/26 02:05:58;;;;;;;25.10;9.73;;;21.50;99.90;;;;;;4930500;29;20091;-84
2022/08/26 02:08:29;;;;;;;19.70;10.95;;;21.50;99.90;;;;;;4931758;29;20040;-84
2022/08/26 02:10:55;;;;;;;19.02;11.27;;;21.60;99.90;;;;;;4929876;29;20028;-84
2022/08/26 02:13:24;;;;;;;20.80;10.25;;;21.60;99.90;;;;;;4930570;29;20503;-84
2022/08/26 02:15:50;;;;;;;18.83;9.38;;;21.60;99.90;;;;;;4930737;29;20320;-84
2022/08/26 02:18:16;;;;;;;16.98;10.23;;;21.60;99.90;;;;;;4932341;29;20416;-84
2022/08/26 02:20:41;;;;;;;21.58;11.55;;;21.50;99.90;;;;;;4930545;29;20397;-83
2022/08/26 02:23:07;;;;;;;25.40;10.80;;;21.50;99.90;;;;;;4931142;29;20495;-84
2022/08/26 02:25:50;;;;;;;20.50;9.38;;;21.50;99.90;;;;;;4930741;29;20520;-83
2022/08/26 02:28:17;;;;;;;18.67;9.93;;;21.40;99.90;;;;;;4931157;29;20032;-84
2022/08/26 02:30:43;;;;;;;19.48;9.05;;;21.50;99.90;;;;;;4930443;29;20036;-84
2022/08/26 02:33:09;;;;;;;17.80;9.68;;;21.40;99.90;;;;;;4931608;29;20050;-84
2022/08/26 02:35:36;;;;;;;15.30;9.32;;;21.40;99.90;;;;;;4931594;29;20424;-84
2022/08/26 02:38:05;;;;;;;17.55;9.63;;;21.40;99.90;;;;;;4932059;29;20028;-83
2022/08/26 02:40:36;;;;;;;23.02;10.05;;;21.30;99.90;;;;;;4931630;29;20024;-84
2022/08/26 02:43:03;;;;;;;17.40;9.65;;;21.20;99.90;;;;;;4930301;29;20075;-84
2022/08/26 02:45:29;;;;;;;19.70;9.98;;;21.20;99.90;;;;;;4930896;29;20039;-85
2022/08/26 02:47:56;;;;;;;21.48;9.30;;;21.10;99.90;;;;;;4930783;29;20043;-85
2022/08/26 02:50:23;;;;;;;16.73;9.88;;;21.10;99.90;;;;;;4930646;29;20493;-84
2022/08/26 02:52:49;;;;;;;20.58;10.25;;;21.00;99.90;;;;;;4930930;29;20036;-84
2022/08/26 02:55:15;;;;;;;22.38;10.43;;;21.00;99.90;;;;;;4930969;29;20082;-84
2022/08/26 02:57:40;;;;;;;15.40;8.60;;;20.90;99.90;;;;;;4934473;29;20037;-84
2022/08/26 03:00:08;;;;;;;15.43;8.98;;;21.00;99.90;;;;;;4932184;29;20559;-84
2022/08/26 03:02:33;;;;;;;18.13;9.57;;;21.10;99.90;;;;;;4934300;29;20024;-84
2022/08/26 03:04:59;;;;;;;16.92;8.60;;;21.10;99.90;;;;;;4932522;29;20385;-84
2022/08/26 03:07:25;;;;;;;22.25;10.13;;;21.10;99.90;;;;;;4935136;29;20028;-85
2022/08/26 03:09:51;;;;;;;23.70;9.98;;;21.10;99.90;;;;;;4933756;29;20070;-85
2022/08/26 03:12:19;;;;;;;20.77;8.45;;;21.10;99.90;;;;;;4935001;29;20035;-84
2022/08/26 03:14:45;;;;;;;18.13;8.73;;;21.10;99.90;;;;;;4931930;29;20039;-84
2022/08/26 03:17:10;;;;;;;17.95;9.07;;;21.10;99.90;;;;;;4933068;29;20058;-84
2022/08/26 03:19:36;;;;;;;19.38;9.95;;;21.20;99.90;;;;;;4934003;29;20559;-85
2022/08/26 03:22:03;;;;;;;24.60;11.13;;;21.20;99.90;;;;;;4933721;29;20326;-84
2022/08/26 03:24:30;;;;;;;16.35;10.15;;;21.30;99.90;;;;;;4933521;29;20059;-84
2022/08/26 03:26:55;;;;;;;22.38;9.73;;;21.30;99.90;;;;;;4934643;29;20518;-85
2022/08/26 03:32:07;;;;;;;16.05;9.15;;;21.10;99.90;;;;;;4931891;29;20090;-84
2022/08/26 03:34:33;;;;;;;18.00;9.95;;;20.90;99.90;;;;;;4933035;29;20039;-84
2022/08/26 03:36:59;;;;;;;18.35;9.25;;;20.70;99.90;;;;;;4934295;29;20034;-83
2022/08/26 03:39:25;;;;;;;18.65;10.02;;;20.70;99.90;;;;;;4933921;29;20027;-83
2022/08/26 03:41:51;;;;;;;13.65;9.40;;;20.80;99.90;;;;;;4933788;29;20023;-83
2022/08/26 03:44:16;;;;;;;15.32;9.00;;;20.90;99.90;;;;;;4933208;29;20087;-83
2022/08/26 03:46:42;;;;;;;18.42;10.82;;;21.00;99.90;;;;;;4932745;29;20042;-83
2022/08/26 03:49:08;;;;;;;18.13;9.23;;;21.10;99.90;;;;;;4932755;29;20114;-83
2022/08/26 03:51:35;;;;;;;17.05;9.35;;;21.20;99.90;;;;;;4932163;29;20123;-83
2022/08/26 03:54:01;;;;;;;24.70;10.63;;;21.00;99.90;;;;;;4930424;29;20063;-83
2022/08/26 03:56:27;;;;;;;17.02;9.95;;;21.00;99.90;;;;;;4933588;29;20059;-83
2022/08/26 03:58:53;;;;;;;22.10;10.90;;;21.00;99.90;;;;;;4932847;29;20110;-83
2022/08/26 04:01:20;;;;;;;20.50;11.02;;;21.00;99.90;;;;;;4930671;29;20106;-83
2022/08/26 04:03:57;;;;;;;22.48;10.65;;;20.90;99.90;;;;;;4932215;29;20114;-83
2022/08/26 04:06:29;;;;;;;22.85;10.25;;;20.80;99.90;;;;;;4933165;29;20044;-82
2022/08/26 04:08:56;;;;;;;29.17;10.55;;;20.60;99.90;;;;;;4932928;29;20445;-82
2022/08/26 04:11:29;;;;;;;19.75;10.18;;;20.50;99.90;;;;;;4931159;29;20043;-83
2022/08/26 04:13:55;;;;;;;16.25;10.10;;;20.50;99.90;;;;;;4930980;29;20035;-83
2022/08/26 04:16:21;;;;;;;22.60;10.07;;;20.40;99.90;;;;;;4931131;29;20103;-83
2022/08/26 04:18:46;;;;;;;23.27;10.57;;;20.40;99.90;;;;;;4930805;29;20031;-82
2022/08/26 04:21:12;;;;;;;20.40;10.23;;;20.20;99.90;;;;;;4932167;29;20114;-82
2022/08/26 04:23:38;;;;;;;20.98;10.40;;;20.20;99.90;;;;;;4931320;29;20028;-82
2022/08/26 04:26:04;;;;;;;19.23;10.68;;;20.20;99.90;;;;;;4931626;29;20090;-82
2022/08/26 04:28:29;;;;;;;25.33;11.95;;;20.20;99.90;;;;;;4928250;29;20035;-82
2022/08/26 04:30:56;;;;;;;27.70;12.85;;;20.20;99.90;;;;;;4931759;29;20020;-82
2022/08/26 04:33:22;;;;;;;25.75;11.38;;;20.30;99.90;;;;;;4932897;29;20103;-81
2022/08/26 04:35:48;;;;;;;19.40;11.63;;;20.30;99.90;;;;;;4930880;29;20039;-82
2022/08/26 04:38:15;;;;;;;19.67;10.10;;;20.30;99.90;;;;;;4931437;29;20024;-81
2022/08/26 04:40:45;;;;;;;18.17;11.65;;;20.40;99.90;;;;;;4932018;29;20032;-83
2022/08/26 04:43:11;;;;;;;26.33;12.10;;;20.40;99.90;;;;;;4931575;29;20118;-82
2022/08/26 04:45:39;;;;;;;24.77;11.52;;;20.40;99.90;;;;;;4930338;29;20322;-81
2022/08/26 04:48:05;;;;;;;18.23;11.35;;;20.40;99.90;;;;;;4931458;29;20214;-82
2022/08/26 04:50:31;;;;;;;22.67;12.68;;;20.40;99.90;;;;;;4929680;29;20424;-81
2022/08/26 04:52:57;;;;;;;20.27;11.70;;;20.50;99.90;;;;;;4928856;29;20469;-82
2022/08/26 04:55:23;;;;;;;19.58;10.73;;;20.50;99.90;;;;;;4933334;29;20059;-79
2022/08/26 04:57:49;;;;;;;23.17;11.27;;;20.50;99.90;;;;;;4930626;29;20108;-81
2022/08/26 05:00:15;;;;;;;22.55;11.80;;;20.60;99.90;;;;;;4931904;29;20102;-81
2022/08/26 05:02:41;;;;;;;25.40;11.23;;;20.80;99.90;;;;;;4935905;29;20463;-82
2022/08/26 05:05:07;;;;;;;22.23;10.85;;;20.80;99.90;;;;;;4936412;29;20560;-84
2022/08/26 05:07:34;;;;;;;21.88;12.05;;;20.80;99.90;;;;;;4937513;29;20043;-82
2022/08/26 05:10:00;;;;;;;14.05;11.00;;;20.80;99.90;;;;;;4937444;29;20036;-83
2022/08/26 05:12:28;;;;;;;18.38;11.82;;;20.80;99.90;;;;;;4938046;29;20024;-84
2022/08/26 05:14:53;;;;;;;21.40;11.18;;;20.90;99.90;;;;;;4938227;29;20448;-82
2022/08/26 05:17:19;;;;;;;22.80;11.50;;;20.90;99.90;;;;;;4938641;29;20030;-82
2022/08/26 05:19:45;;;;;;;19.63;10.73;;;21.10;99.90;;;;;;4939500;29;20028;-84
2022/08/26 05:22:11;;;;;;;22.73;12.40;;;21.20;99.90;;;;;;4935148;29;20039;-82
2022/08/26 05:24:37;;;;;;;23.23;10.80;;;21.50;99.90;;;;;;4935228;29;20039;-84
2022/08/26 05:27:02;;;;;;;28.73;11.45;;;21.70;99.90;;;;;;4937744;29;20028;-73
2022/08/26 05:29:28;;;;;;;19.45;12.15;;;22.10;99.90;;;;;;4931638;29;20408;-73
2022/08/26 05:31:53;;;;;;;24.15;11.30;;;22.10;99.90;;;;;;4932340;29;20024;-73
2022/08/26 05:34:19;;;;;;;20.17;11.65;;;22.10;99.90;;;;;;4931768;29;20118;-73
2022/08/26 05:36:45;;;;;;;30.35;11.95;;;22.00;99.90;;;;;;4931040;29;20055;-73
2022/08/26 05:39:10;;;;;;;25.40;10.43;;;22.00;99.90;;;;;;4931580;29;20032;-73
2022/08/26 05:41:39;;;;;;;19.42;10.90;;;21.90;99.90;;;;;;4930963;29;20035;-73
2022/08/26 05:44:09;;;;;;;17.42;12.07;;;21.90;99.90;;;;;;4930465;29;20027;-74
2022/08/26 05:46:36;;;;;;;20.45;11.65;;;22.00;99.90;;;;;;4930882;29;20046;-73
2022/08/26 05:49:03;;;;;;;14.38;10.63;;;22.00;99.90;;;;;;4930210;29;20038;-72
2022/08/26 05:51:29;;;;;;;25.27;11.57;;;22.10;99.90;;;;;;4932373;29;20039;-72
2022/08/26 05:53:55;;;;;;;26.77;11.65;;;22.20;99.90;;;;;;4931083;29;20035;-73
2022/08/26 05:56:26;;;;;;;35.45;11.18;;;22.30;99.90;;;;;;4931983;29;20464;-73
2022/08/26 05:58:52;;;;;;;24.65;11.55;;;22.50;99.90;;;;;;4930563;29;20031;-73
2022/08/26 06:01:21;;;;;;;19.98;11.15;;;22.60;99.90;;;;;;4931985;29;20034;-72
2022/08/26 06:03:50;;;;;;;19.63;11.32;;;22.70;99.90;;;;;;4931437;29;20035;-72
2022/08/26 06:06:22;;;;;;;18.75;10.30;;;22.80;99.90;;;;;;4928841;29;20489;-74
2022/08/26 06:08:49;;;;;;;25.50;10.75;;;22.90;99.90;;;;;;4928259;29;20042;-81
2022/08/26 06:11:17;;;;;;;23.75;11.70;;;22.90;99.90;;;;;;4932345;29;20086;-78
2022/08/26 06:13:43;;;;;;;16.73;10.82;;;23.00;99.90;;;;;;4930957;29;20144;-78
2022/08/26 06:16:11;;;;;;;19.27;10.20;;;23.00;99.90;;;;;;4930659;29;20031;-78
2022/08/26 06:18:41;;;;;;;18.90;10.02;;;23.10;99.90;;;;;;4931329;29;20031;-73
2022/08/26 06:21:25;;;;;;;17.23;11.63;;;23.20;99.90;;;;;;4930912;29;20043;-72
2022/08/26 06:26:39;;;;;;;28.23;11.88;;;23.40;99.90;;;;;;4931559;29;20046;-74
2022/08/26 06:29:06;;;;;;;22.75;11.50;;;23.60;99.90;;;;;;4932183;29;20032;-79
2022/08/26 06:31:34;;;;;;;24.70;9.50;;;23.70;99.90;;;;;;4930828;29;20191;-77
2022/08/26 06:33:59;;;;;;;24.80;10.15;;;23.80;99.90;;;;;;4934605;29;20031;-80
2022/08/26 06:36:27;;;;;;;26.77;10.10;;;23.90;99.90;;;;;;4939063;29;20037;-80
2022/08/26 06:38:57;;;;;;;17.27;9.15;;;23.90;99.80;;;;;;4937727;29;20023;-79
2022/08/26 06:41:23;;;;;;;19.17;9.93;;;23.80;99.90;;;;;;4935187;29;20038;-80
2022/08/26 06:43:49;;;;;;;15.18;9.85;;;23.70;99.90;;;;;;4934746;29;20032;-79
2022/08/26 06:46:17;;;;;;;16.13;10.02;;;23.70;99.90;;;;;;4938054;29;20405;-77
2022/08/26 06:48:43;;;;;;;22.85;10.40;;;23.80;99.90;;;;;;4933108;29;20501;-80
2022/08/26 06:51:14;;;;;;;18.35;10.65;;;23.80;99.90;;;;;;4934666;29;20035;-79
2022/08/26 06:53:41;;;;;;;23.65;11.43;;;23.80;99.90;;;;;;4935010;29;20038;-80
2022/08/26 06:56:08;;;;;;;24.42;11.32;;;23.80;99.90;;;;;;4933119;29;20030;-75
2022/08/26 06:58:36;;;;;;;20.00;10.80;;;23.80;99.90;;;;;;4934451;29;20055;-79
2022/08/26 07:01:03;;;;;;;21.30;10.40;;;23.80;99.90;;;;;;4935431;29;20035;-74
2022/08/26 07:03:29;;;;;;;23.85;17.00;;;23.90;99.90;;;;;;4932744;29;20492;-72
2022/08/26 07:06:00;;;;;;;25.67;12.68;;;24.10;99.90;;;;;;4934655;29;20034;-75
2022/08/26 07:08:26;;;;;;;20.60;13.98;;;24.30;99.80;;;;;;4935577;29;20043;-79
2022/08/26 07:10:52;;;;;;;27.50;13.57;;;24.40;99.80;;;;;;4935433;29;20111;-71
2022/08/26 07:13:18;;;;;;;32.28;20.20;;;24.50;99.70;;;;;;4933212;29;20039;-73
2022/08/26 07:15:43;;;;;;;24.23;13.88;;;24.60;99.50;;;;;;4933369;29;20118;-81
2022/08/26 07:18:09;;;;;;;21.55;12.75;;;24.70;99.30;;;;;;4935135;29;20095;-82
2022/08/26 07:20:41;;;;;;;31.05;16.00;;;24.90;99.20;;;;;;4936911;29;20012;-77
2022/08/26 07:23:08;;;;;;;27.88;14.93;;;25.00;99.10;;;;;;4939118;29;20085;-76
2022/08/26 07:25:38;;;;;;;17.73;11.38;;;25.20;99.00;;;;;;4935579;29;20040;-77
2022/08/26 07:28:04;;;;;;;29.08;11.15;;;25.30;98.90;;;;;;4933433;29;20023;-77
2022/08/26 07:30:29;;;;;;;20.23;11.27;;;25.40;98.70;;;;;;4933234;29;20078;-74
2022/08/26 07:32:57;;;;;;;18.67;9.75;;;25.40;98.70;;;;;;4934236;29;20030;-74
2022/08/26 07:35:23;;;;;;;19.80;11.30;;;25.50;98.70;;;;;;4932538;23;20398;-73
2022/08/26 07:37:48;;;;;;;30.27;11.18;;;25.60;98.60;;;;;;4913504;29;20100;-74
2022/08/26 07:40:14;;;;;;;25.73;13.27;;;25.70;98.50;;;;;;4912824;29;20026;-71
2022/08/26 07:42:40;;;;;;;21.45;10.38;;;25.80;98.50;;;;;;4913565;29;20039;-72
2022/08/26 07:45:05;;;;;;;21.17;12.10;;;25.90;98.40;;;;;;4914436;29;20071;-72
2022/08/26 07:47:31;;;;;;;21.17;12.48;;;25.90;98.30;;;;;;4912421;29;20036;-74
2022/08/26 07:49:57;;;;;;;24.38;11.68;;;25.90;98.20;;;;;;4911708;29;20024;-73
2022/08/26 07:52:24;;;;;;;18.73;11.68;;;26.00;98.20;;;;;;4913827;29;20044;-73
2022/08/26 07:54:49;;;;;;;20.08;10.88;;;26.10;98.00;;;;;;4909705;29;20536;-73
2022/08/26 07:57:15;;;;;;;21.17;11.13;;;26.20;97.90;;;;;;4910844;29;20038;-77
2022/08/26 07:59:40;;;;;;;23.58;11.63;;;26.40;98.00;;;;;;4907574;29;20028;-73
2022/08/26 08:02:06;;;;;;;25.33;12.25;;;26.50;97.90;;;;;;4905700;29;20515;-71
2022/08/26 08:04:32;;;;;;;24.67;11.13;;;26.70;97.80;;;;;;4913695;29;20119;-70
2022/08/26 08:06:57;;;;;;;23.77;11.40;;;26.90;97.80;;;;;;4910942;29;20111;-84
2022/08/26 08:09:23;;;;;;;26.17;12.02;;;27.00;97.40;;;;;;4912315;29;20032;-80
2022/08/26 08:11:49;;;;;;;27.48;13.20;;;27.00;97.50;;;;;;4913318;29;20040;-77
2022/08/26 08:14:15;;;;;;;27.98;11.82;;;27.00;97.20;;;;;;4911794;29;20566;-76
2022/08/26 08:16:41;;;;;;;32.03;11.55;;;27.10;97.10;;;;;;4911798;29;20024;-73
2022/08/26 08:19:06;;;;;;;28.45;11.40;;;27.10;97.00;;;;;;4912960;29;20076;-74
2022/08/26 08:21:32;;;;;;;29.02;11.13;;;27.10;96.80;;;;;;4911120;29;20263;-79
2022/08/26 08:23:57;;;;;;;35.67;12.98;;;27.00;97.00;;;;;;4912655;29;20063;-76
2022/08/26 08:26:24;;;;;;;28.63;12.40;;;27.00;97.00;;;;;;4912593;29;20228;-76
2022/08/26 08:28:53;;;;;;;25.73;12.45;;;27.10;97.00;;;;;;4913183;29;20338;-75
2022/08/26 08:31:21;;;;;;;26.35;10.63;;;27.20;96.80;;;;;;4911294;29;20059;-79
2022/08/26 08:33:47;;;;;;;27.55;12.95;;;27.20;96.50;;;;;;4911249;29;20056;-79
2022/08/26 08:36:14;;;;;;;27.70;11.90;;;27.20;96.50;;;;;;4912859;29;20059;-78
2022/08/26 08:38:39;;;;;;;27.15;10.60;;;27.20;96.50;;;;;;4910811;29;20111;-74
2022/08/26 08:41:12;;;;;;;21.42;12.15;;;27.30;96.30;;;;;;4910364;29;20132;-75
2022/08/26 08:43:41;;;;;;;25.48;11.25;;;27.30;96.10;;;;;;4912682;29;20024;-74
2022/08/26 08:46:09;;;;;;;22.95;11.35;;;27.30;96.20;;;;;;4911614;29;20111;-76
2022/08/26 08:48:40;;;;;;;27.92;13.63;;;27.30;96.30;;;;;;4910700;29;20481;-74
2022/08/26 08:51:31;;;;;;;27.73;11.30;;;27.30;96.20;;;;;;4912316;29;20032;-74
2022/08/26 08:53:58;;;;;;;28.33;13.02;;;27.40;96.10;;;;;;4909904;29;20035;-74
2022/08/26 08:56:27;;;;;;;22.38;11.05;;;27.40;96.00;;;;;;4909355;29;20028;-82
2022/08/26 08:59:14;;;;;;;26.75;12.32;;;27.40;95.90;;;;;;4907892;29;20032;-81
2022/08/26 09:02:04;;;;;;;29.60;12.50;;;27.50;95.70;;;;;;4911838;29;20024;-73
2022/08/26 09:04:54;;;;;;;18.25;10.68;;;27.60;95.80;;;;;;4908933;29;20380;-79
2022/08/26 09:07:35;;;;;;;26.92;11.73;;;27.50;95.50;;;;;;4910080;29;20029;-79
2022/08/26 09:10:11;;;;;;;21.73;11.23;;;27.30;95.50;;;;;;4910900;29;20032;-78
2022/08/26 09:12:37;;;;;;;35.83;12.52;;;27.10;95.50;;;;;;4911329;29;20505;-76
2022/08/26 09:15:25;;;;;;;26.15;10.95;;;27.00;95.60;;;;;;4911323;29;20403;-76
2022/08/26 09:17:53;;;;;;;31.80;11.13;;;26.90;95.80;;;;;;4909896;29;20045;-78
2022/08/26 09:20:48;;;;;;;28.73;11.05;;;26.90;95.80;;;;;;4909659;29;20461;-75
2022/08/26 09:23:14;;;;;;;26.30;10.65;;;27.00;95.50;;;;;;4910454;29;20058;-75
2022/08/26 09:25:55;;;;;;;36.22;10.65;;;26.90;95.30;;;;;;4911432;29;20287;-78
2022/08/26 09:28:22;;;;;;;28.23;11.13;;;26.80;95.20;;;;;;4911680;29;20036;-77
2022/08/26 09:31:22;;;;;;;27.45;10.82;;;26.70;95.40;;;;;;4910504;29;20032;-79
2022/08/26 09:33:48;;;;;;;32.00;10.23;;;26.70;95.40;;;;;;4882188;29;20045;-78
2022/08/26 09:36:21;;;;;;;22.33;11.75;;;26.70;95.40;;;;;;4909317;29;20087;-78
2022/08/26 09:38:49;;;;;;;35.00;16.70;;;26.70;95.40;;;;;;4910797;29;20099;-78
2022/08/26 09:41:32;;;;;;;26.50;11.82;;;26.70;95.50;;;;;;4910148;29;20068;-79
2022/08/26 09:44:13;;;;;;;28.48;11.27;;;26.80;95.50;;;;;;4908395;29;20398;-79
2022/08/26 09:46:43;;;;;;;28.20;12.63;;;26.70;95.80;;;;;;4908846;29;20470;-80
2022/08/26 09:49:31;;;;;;;30.80;11.55;;;26.70;95.60;;;;;;4911039;29;20042;-79
2022/08/26 09:52:11;;;;;;;39.45;15.93;;;26.70;95.70;;;;;;4908978;29;20048;-82
2022/08/26 09:54:38;;;;;;;27.33;13.38;;;26.70;95.70;;;;;;4909119;29;20401;-80
2022/08/26 09:57:32;;;;;;;39.35;15.45;;;26.70;95.70;;;;;;4910484;29;20034;-80
2022/08/26 10:00:00;;;;;;;36.10;12.23;;;26.80;95.80;;;;;;4906504;29;20043;-83
2022/08/26 10:02:31;;;;;;;42.00;12.48;;;26.90;95.80;;;;;;4910234;29;20028;-78
2022/08/26 10:04:59;;;;;;;26.00;11.57;;;27.00;95.60;;;;;;4907062;29;20044;-78
2022/08/26 10:07:47;;;;;;;32.28;12.63;;;27.00;95.60;;;;;;4912444;29;20497;-78
2022/08/26 10:10:19;;;;;;;35.20;15.95;;;27.20;95.70;;;;;;4914246;29;20048;-78
2022/08/26 10:13:06;;;;;;;30.95;13.43;;;27.30;95.50;;;;;;4914107;29;20278;-79
2022/08/26 10:15:41;;;;;;;36.53;12.18;;;27.20;95.40;;;;;;4914062;29;20393;-77
2022/08/26 10:18:16;;;;;;;35.23;11.50;;;27.30;95.20;;;;;;4912997;29;20024;-75
2022/08/26 10:20:58;;;;;;;31.65;12.57;;;27.40;95.30;;;;;;4915418;29;20429;-76
2022/08/26 10:23:27;;;;;;;27.45;13.07;;;27.60;95.20;;;;;;4914845;29;20043;-76
2022/08/26 10:25:58;;;;;;;31.60;11.38;;;27.60;95.20;;;;;;4912785;29;20064;-77
2022/08/26 10:28:33;;;;;;;28.33;13.55;;;27.60;95.00;;;;;;4915626;29;20039;-77
2022/08/26 10:31:34;;;;;;;26.77;13.00;;;27.60;94.50;;;;;;4914466;29;20036;-77
2022/08/26 10:33:59;;;;;;;32.55;10.88;;;27.60;94.70;;;;;;4913810;29;20501;-78
2022/08/26 10:39:41;;;;;;;28.00;11.73;;;27.60;94.90;;;;;;4913738;29;20481;-76
2022/08/26 10:42:12;;;;;;;31.52;11.48;;;27.60;94.80;;;;;;4912500;29;20119;-70
2022/08/26 10:44:41;;;;;;;28.08;11.40;;;27.60;94.90;;;;;;4914163;29;20032;-76
2022/08/26 10:47:23;;;;;;;29.08;10.23;;;27.60;94.80;;;;;;4915262;29;20028;-72
2022/08/26 10:49:51;;;;;;;21.85;10.45;;;27.70;94.80;;;;;;4913515;29;20047;-71
2022/08/26 10:52:42;;;;;;;25.98;11.18;;;27.80;94.90;;;;;;4914514;29;20034;-71
2022/08/26 10:55:37;;;;;;;33.25;11.63;;;27.90;94.60;;;;;;4913101;29;20123;-79
2022/08/26 10:58:34;;;;;;;31.67;10.50;;;28.00;94.40;;;;;;4887205;29;20119;-83
2022/08/26 11:04:19;;;;;;;18.30;9.77;;;28.10;94.20;;;;;;4912938;29;20283;-85
2022/08/26 11:06:45;;;;;;;34.95;13.02;;;28.20;94.20;;;;;;4913490;29;20028;-85
2022/08/26 11:09:31;;;;;;;34.95;12.07;;;28.20;94.10;;;;;;4914052;29;20405;-82
2022/08/26 11:11:57;;;;;;;;;;;28.20;93.90;;;;;;4912344;29;20293;-82
2022/08/26 11:14:22;;;;;;;34.67;10.73;;;28.10;94.10;;;;;;4913349;29;19918;-85
2022/08/26 11:16:55;;;;;;;30.05;10.98;;;28.20;93.70;;;;;;4911264;29;20111;-84
2022/08/26 11:19:39;;;;;;;29.15;11.05;;;28.20;93.90;;;;;;4912814;29;20020;-84
2022/08/26 11:22:25;;;;;;;30.65;10.18;;;28.20;93.70;;;;;;4913430;29;20051;-81
2022/08/26 11:24:54;;;;;;;29.23;10.48;;;28.20;93.60;;;;;;4913692;29;20397;-84
2022/08/26 11:27:25;;;;;;;31.48;11.18;;;28.20;93.80;;;;;;4914160;29;20044;-77
2022/08/26 11:30:00;;;;;;;30.80;11.73;;;28.30;93.60;;;;;;4911466;29;20035;-83
2022/08/26 11:32:49;;;;;;;32.05;12.32;;;28.40;93.20;;;;;;4911506;29;20111;-88
2022/08/26 11:35:20;;;;;;;33.10;10.65;;;28.30;92.90;;;;;;4897400;29;20489;-84
2022/08/26 11:37:56;;;;;;;44.08;10.50;;;28.30;93.10;;;;;;4913796;29;20450;-84
2022/08/26 11:40:27;;;;;;;34.85;10.50;;;28.20;93.20;;;;;;4912551;29;20024;-81
2022/08/26 11:42:56;;;;;;;34.42;10.68;;;28.20;93.30;;;;;;4913634;29;20028;-78
2022/08/26 11:45:41;;;;;;;44.85;11.93;;;28.20;93.00;;;;;;4912363;29;20489;-75
2022/08/26 11:48:16;;;;;;;24.80;11.18;;;28.20;92.80;;;;;;4912299;29;20122;-77
2022/08/26 11:50:56;;;;;;;26.42;12.00;;;28.10;93.00;;;;;;4910398;29;20039;-87
2022/08/26 11:53:22;;;;;;;25.77;10.65;;;28.10;92.80;;;;;;4913794;29;20043;-79
2022/08/26 11:55:50;;;;;;;27.65;10.40;;;28.10;93.00;;;;;;4911480;29;20622;-80
2022/08/26 11:58:17;;;;;;;23.13;11.20;;;28.20;93.20;;;;;;4911956;29;20436;-80
2022/08/26 12:00:43;;;;;;;28.33;9.90;;;28.20;92.90;;;;;;4911078;29;20044;-86
2022/08/26 12:03:14;;;;;;;30.02;10.75;;;28.20;92.90;;;;;;4913040;29;20094;-86
2022/08/26 12:05:45;;;;;;;31.48;11.48;;;28.30;92.90;;;;;;4909965;29;20028;-85
2022/08/26 12:08:16;;;;;;;33.33;10.05;;;28.30;92.60;;;;;;4913859;29;20044;-84
2022/08/26 12:10:41;;;;;;;34.35;12.25;;;28.40;92.70;;;;;;4912025;29;20068;-82
2022/08/26 12:13:16;;;;;;;32.42;15.50;;;28.50;92.60;;;;;;4913024;29;20055;-77
2022/08/26 12:15:55;;;;;;;32.40;9.82;;;28.60;92.20;;;;;;4911805;29;20024;-75
2022/08/26 12:18:24;;;;;;;28.23;10.88;;;28.70;92.30;;;;;;4913063;29;20028;-76
2022/08/26 12:20:53;;;;;;;31.67;10.95;;;29.10;92.00;;;;;;4910446;29;20027;-78
2022/08/26 12:23:21;;;;;;;30.77;11.95;;;29.30;91.70;;;;;;4914117;29;20469;-85
2022/08/26 12:25:49;;;;;;;34.63;9.95;;;29.60;91.50;;;;;;4912275;29;20119;-81
2022/08/26 12:28:15;;;;;;;36.40;10.18;;;29.70;91.00;;;;;;4913272;29;20036;-83
2022/08/26 12:30:41;;;;;;;20.88;9.82;;;29.80;90.70;;;;;;4908831;29;20112;-84
2022/08/26 12:33:12;;;;;;;32.50;15.48;;;29.90;90.10;;;;;;4913580;29;20032;-81
2022/08/26 12:35:39;;;;;;;56.65;30.83;;;29.90;90.20;;;;;;4911124;29;20142;-88
2022/08/26 12:38:06;;;;;;;27.92;15.02;;;30.00;89.70;;;;;;4911445;29;20112;-85
2022/08/26 12:40:33;;;;;;;29.83;13.65;;;30.00;88.20;;;;;;4910102;29;20028;-86
2022/08/26 12:43:00;;;;;;;31.88;10.88;;;30.00;86.70;;;;;;4913066;29;20055;-81
2022/08/26 12:45:57;;;;;;;29.63;9.38;;;30.20;85.60;;;;;;4911572;29;20043;-82
2022/08/26 12:48:29;;;;;;;26.25;8.15;;;30.30;85.80;;;;;;4905968;29;20036;-80
2022/08/26 12:50:56;;;;;;;38.63;9.88;;;30.50;84.10;;;;;;4912607;29;20035;-78
2022/08/26 12:53:27;;;;;;;19.80;9.13;;;30.60;84.70;;;;;;4911948;29;20060;-78
2022/08/26 12:56:17;;;;;;;21.45;7.72;;;30.80;84.50;;;;;;4911536;29;20036;-77